Time;durP1;ratioP1;P1;durP2;ratioP2;P2;SDS_P1;SDS_P2;PMS_P1;PMS_P2;Temp;Humidity;BMP_temperature;BMP_pressure;BME280_temperature;BME280_humidity;BME280_pressure;Samples;Min_cycle;Max_cycle;Signal;HPM_P1;HPM_P2
2022/02/04 00:05:51;;;;;;;;;;;9.20;99.90;;;;;;4937615;29;19914;-94
2022/02/04 00:24:43;;;;;;;;;;;9.30;99.90;;;;;;4936590;29;20002;-90
2022/02/04 00:27:15;;;;;;;;;;;9.30;99.90;;;;;;4935822;29;20340;-90
2022/02/04 00:30:27;;;;;;;;;;;9.40;99.90;;;;;;4935559;29;19907;-89
2022/02/04 00:32:32;;;;;;;;;;;9.30;99.90;;;;;;4931278;29;19982;-89
2022/02/04 00:35:11;;;;;;;;;;;9.20;99.90;;;;;;4936306;29;19917;-90
2022/02/04 00:40:17;;;;;;;;;;;9.20;99.90;;;;;;4936915;29;19914;-90
2022/02/04 00:42:43;;;;;;;;;;;9.30;99.90;;;;;;4935528;29;19910;-90
2022/02/04 00:45:20;;;;;;;;;;;9.20;99.90;;;;;;4922123;29;19919;-90
2022/02/04 00:47:52;;;;;;;;;;;9.20;99.90;;;;;;4916458;29;19914;-90
2022/02/04 00:50:34;;;;;;;;;;;9.20;99.90;;;;;;4916086;29;19954;-92
2022/02/04 00:53:28;;;;;;;;;;;9.30;99.90;;;;;;4916215;29;19915;-94
2022/02/04 00:56:04;;;;;;;;;;;9.30;99.90;;;;;;4917061;29;20387;-89
2022/02/04 01:28:24;;;;;;;;;;;9.40;99.90;;;;;;4916430;29;19991;-90
2022/02/04 01:30:50;;;;;;;;;;;9.30;99.90;;;;;;4916436;29;19907;-90
2022/02/04 01:33:16;;;;;;;;;;;9.40;99.90;;;;;;4915457;29;19922;-89
2022/02/04 01:35:42;;;;;;;;;;;9.30;99.90;;;;;;4916466;29;19907;-90
2022/02/04 01:38:08;;;;;;;;;;;9.40;99.90;;;;;;4916554;29;19910;-89
2022/02/04 01:40:34;;;;;;;;;;;9.40;99.90;;;;;;4915778;29;20002;-90
2022/02/04 01:42:59;;;;;;;;;;;9.50;99.90;;;;;;4915067;29;19914;-89
2022/02/04 01:45:25;;;;;;;;;;;9.50;99.90;;;;;;4915938;29;19919;-90
2022/02/04 01:47:57;;;;;;;;;;;9.50;99.90;;;;;;4916581;29;20360;-90
2022/02/04 01:50:23;;;;;;;;;;;9.50;99.90;;;;;;4917087;29;19998;-88
2022/02/04 01:52:49;;;;;;;;;;;9.50;99.90;;;;;;4916136;29;20368;-89
2022/02/04 01:55:15;;;;;;;;;;;9.60;99.90;;;;;;4915016;29;19914;-90
2022/02/04 01:57:41;;;;;;;;;;;9.50;99.90;;;;;;4916432;29;19907;-91
2022/02/04 02:00:07;;;;;;;;;;;9.60;99.90;;;;;;4915428;29;19914;-95
2022/02/04 02:02:33;;;;;;;;;;;9.60;99.90;;;;;;4915346;29;19907;-89
2022/02/04 02:04:59;;;;;;;;;;;9.60;99.90;;;;;;4915456;29;20384;-95
2022/02/04 02:07:25;;;;;;;;;;;9.60;99.90;;;;;;4916694;29;19911;-93
2022/02/04 02:12:19;;;;;;;;;;;9.60;99.90;;;;;;4916240;29;19911;-96
2022/02/04 02:15:02;;;;;;;;;;;9.50;99.90;;;;;;4916075;29;19911;-92
2022/02/04 03:00:13;;;;;;;;;;;9.40;99.90;;;;;;4919931;29;19915;-90
2022/02/04 03:02:40;;;;;;;;;;;9.50;99.90;;;;;;4917629;29;19935;-93
2022/02/04 03:05:05;;;;;;;;;;;9.40;99.90;;;;;;4917589;29;19914;-96
2022/02/04 03:07:31;;;;;;;;;;;9.30;99.90;;;;;;4916977;29;20280;-89
2022/02/04 03:09:56;;;;;;;;;;;9.30;99.90;;;;;;4919143;29;19907;-95
2022/02/04 03:12:23;;;;;;;;;;;9.40;99.90;;;;;;4918796;29;19911;-89
2022/02/04 03:14:49;;;;;;;;;;;9.30;99.90;;;;;;4917303;29;19911;-89
2022/02/04 03:17:15;;;;;;;;;;;9.40;99.90;;;;;;4918196;29;20420;-89
2022/02/04 03:19:45;;;;;;;;;;;9.30;99.90;;;;;;4917366;29;19942;-89
2022/02/04 03:22:13;;;;;;;;;;;9.30;99.90;;;;;;4918803;29;20261;-89
2022/02/04 03:24:41;;;;;;;;;;;9.30;99.90;;;;;;4918690;29;19906;-90
2022/02/04 03:27:10;;;;;;;;;;;9.20;99.90;;;;;;4917488;29;19907;-95
2022/02/04 03:29:57;;;;;;;;;;;9.20;99.90;;;;;;4918595;29;19907;-91
2022/02/04 03:32:23;;;;;;;;;;;9.20;99.90;;;;;;4918923;29;19915;-89
2022/02/04 03:34:48;;;;;;;;;;;9.20;99.90;;;;;;4919079;29;19997;-90
2022/02/04 03:37:14;;;;;;;;;;;9.20;99.90;;;;;;4919761;29;19934;-89
2022/02/04 03:39:40;;;;;;;;;;;9.20;99.90;;;;;;4918444;29;19911;-94
2022/02/04 03:42:06;;;;;;;;;;;9.20;99.90;;;;;;4918084;29;20372;-96
2022/02/04 03:44:32;;;;;;;;;;;9.20;99.90;;;;;;4920807;29;19922;-89
2022/02/04 03:46:58;;;;;;;;;;;9.20;99.90;;;;;;4932424;29;19911;-90
2022/02/04 03:49:25;;;;;;;;;;;9.20;99.90;;;;;;4932034;29;19962;-89
2022/02/04 03:51:51;;;;;;;;;;;9.10;99.90;;;;;;4932362;29;19907;-96
2022/02/04 03:54:16;;;;;;;;;;;9.10;99.90;;;;;;4917312;29;19911;-91
2022/02/04 03:56:42;;;;;;;;;;;9.10;99.90;;;;;;4917619;29;19907;-89
2022/02/04 03:59:08;;;;;;;;;;;9.20;99.90;;;;;;4932120;29;19907;-89
2022/02/04 04:01:33;;;;;;;;;;;9.10;99.90;;;;;;4918505;29;19967;-90
2022/02/04 04:03:59;;;;;;;;;;;9.20;99.90;;;;;;4932724;29;19923;-95
2022/02/04 04:06:26;;;;;;;;;;;9.20;99.90;;;;;;4917138;29;19907;-91
2022/02/04 04:08:54;;;;;;;;;;;9.20;99.90;;;;;;4915648;29;20456;-89
2022/02/04 04:11:20;;;;;;;;;;;9.10;99.90;;;;;;4917347;29;19914;-89
2022/02/04 04:13:46;;;;;;;;;;;9.10;99.90;;;;;;4916822;29;19915;-95
2022/02/04 04:16:14;;;;;;;;;;;9.10;99.90;;;;;;4917378;29;19962;-89
2022/02/04 04:18:39;;;;;;;;;;;9.10;99.90;;;;;;4917368;29;19915;-96
2022/02/04 04:21:05;;;;;;;;;;;9.10;99.90;;;;;;4917136;29;19916;-89
2022/02/04 04:23:30;;;;;;;;;;;9.10;99.90;;;;;;4917688;29;19957;-96
2022/02/04 04:25:56;;;;;;;;;;;9.10;99.90;;;;;;4917384;29;20015;-88
2022/02/04 04:28:21;;;;;;;;;;;9.00;99.90;;;;;;4917463;29;19907;-93
2022/02/04 04:30:47;;;;;;;;;;;9.10;99.90;;;;;;4917901;29;19917;-96
2022/02/04 04:33:13;;;;;;;;;;;9.10;99.90;;;;;;4916955;29;19923;-89
2022/02/04 04:35:38;;;;;;;;;;;9.10;99.90;;;;;;4916801;29;19907;-89
2022/02/04 04:41:14;;;;;;;;;;;9.10;99.90;;;;;;4917496;29;20261;-96
2022/02/04 04:44:46;;;;;;;;;;;9.20;99.90;;;;;;4917125;29;19908;-89
2022/02/04 05:30:01;;;;;;;;;;;9.40;99.90;;;;;;4923501;29;19910;-89
2022/02/04 05:32:27;;;;;;;;;;;9.30;99.90;;;;;;4916635;29;19915;-88
2022/02/04 05:34:52;;;;;;;;;;;9.30;99.90;;;;;;4915438;29;19962;-89
2022/02/04 05:37:20;;;;;;;;;;;9.40;99.90;;;;;;4916105;29;19907;-88
2022/02/04 05:40:08;;;;;;;;;;;9.30;99.90;;;;;;4918954;29;19947;-88
2022/02/04 05:42:37;;;;;;;;;;;9.40;99.90;;;;;;4916219;29;19911;-92
2022/02/04 05:45:15;;;;;;;;;;;9.40;99.90;;;;;;4921897;29;19949;-90
2022/02/04 05:47:41;;;;;;;;;;;9.50;99.90;;;;;;4916263;29;19913;-89
2022/02/04 05:50:16;;;;;;;;;;;9.50;99.90;;;;;;4915936;29;19907;-89
2022/02/04 05:55:37;;;;;;;;;;;9.50;99.90;;;;;;4920605;29;20176;-93
2022/02/04 05:58:17;;;;;;;;;;;9.60;99.90;;;;;;4923625;29;19918;-92
2022/02/04 06:08:35;;;;;;;;;;;9.60;99.90;;;;;;4921911;29;19903;-89
2022/02/04 06:24:03;;;;;;;;;;;9.70;99.90;;;;;;4927167;29;20004;-90
2022/02/04 06:26:51;;;;;;;;;;;9.70;99.90;;;;;;4928197;29;20040;-96
2022/02/04 06:29:20;;;;;;;;;;;9.80;99.90;;;;;;4924687;29;19896;-92
2022/02/04 06:31:46;;;;;;;;;;;9.90;99.90;;;;;;4897830;29;19951;-91
2022/02/04 06:34:12;;;;;;;;;;;9.80;99.90;;;;;;4917249;29;19911;-92
2022/02/04 06:36:37;;;;;;;;;;;9.90;99.90;;;;;;4938673;29;19915;-93
2022/02/04 06:39:03;;;;;;;;;;;10.00;99.90;;;;;;4938927;29;19900;-91
2022/02/04 06:41:29;;;;;;;;;;;9.90;99.90;;;;;;4938420;29;19907;-92
2022/02/04 06:43:55;;;;;;;;;;;9.90;99.90;;;;;;4934856;29;20199;-89
2022/02/04 06:46:21;;;;;;;;;;;9.90;99.90;;;;;;4949657;29;19906;-90
2022/02/04 06:48:48;;;;;;;;;;;10.00;99.90;;;;;;4950701;29;20311;-89
2022/02/04 06:51:15;;;;;;;;;;;10.00;99.90;;;;;;4940620;29;19891;-88
2022/02/04 06:53:40;;;;;;;;;;;10.00;99.90;;;;;;4938132;29;19911;-89
2022/02/04 06:56:06;;;;;;;;;;;10.00;99.90;;;;;;4938966;29;19967;-90
2022/02/04 06:58:32;;;;;;;;;;;10.00;99.90;;;;;;4923199;29;19959;-90
2022/02/04 07:00:57;;;;;;;;;;;10.00;99.90;;;;;;4921533;29;19936;-91
2022/02/04 07:03:23;;;;;;;;;;;10.00;99.90;;;;;;4939554;29;19896;-92
2022/02/04 07:05:55;;;;;;;;;;;10.10;99.90;;;;;;4941123;29;19911;-92
2022/02/04 07:08:27;;;;;;;;;;;10.00;99.90;;;;;;4941717;29;19907;-91
2022/02/04 07:11:06;;;;;;;;;;;10.10;99.90;;;;;;4922956;29;19903;-88
2022/02/04 07:21:30;;;;;;;;;;;10.20;99.90;;;;;;4932414;29;19910;-89
2022/02/04 07:23:55;;;;;;;;;;;10.20;99.90;;;;;;4931757;29;19907;-89
2022/02/04 07:26:21;;;;;;;;;;;10.10;99.90;;;;;;4931213;29;19930;-87
2022/02/04 07:28:47;;;;;;;;;;;10.10;99.90;;;;;;4929086;29;19902;-87
2022/02/04 07:31:14;;;;;;;;;;;10.20;99.90;;;;;;4928110;29;20181;-86
2022/02/04 07:33:51;;;;;;;;;;;10.20;99.90;;;;;;4910759;29;20106;-85
2022/02/04 07:41:42;;;;;;;;;;;10.20;99.90;;;;;;4923411;29;19903;-94
2022/02/04 07:44:08;;;;;;;;;;;10.20;99.90;;;;;;4905831;29;19915;-85
2022/02/04 07:46:33;;;;;;;;;;;10.30;99.90;;;;;;4891903;29;19933;-86
2022/02/04 07:48:59;;;;;;;;;;;10.20;99.90;;;;;;4890765;29;19903;-87
2022/02/04 07:51:25;;;;;;;;;;;10.30;99.90;;;;;;4892740;29;19911;-86
2022/02/04 07:53:50;;;;;;;;;;;10.30;99.90;;;;;;4926080;29;19918;-86
2022/02/04 07:56:20;;;;;;;;;;;10.30;99.90;;;;;;4925820;29;20184;-85
2022/02/04 07:58:58;;;;;;;;;;;10.30;99.90;;;;;;4926268;29;19988;-87
2022/02/04 08:01:28;;;;;;;;;;;10.30;99.90;;;;;;4924429;29;19965;-92
2022/02/04 08:04:20;;;;;;;;;;;10.40;99.90;;;;;;4925904;29;19927;-86
2022/02/04 08:06:46;;;;;;;;;;;10.40;99.90;;;;;;4925858;29;19907;-87
2022/02/04 08:14:30;;;;;;;;;;;10.60;99.90;;;;;;4926837;29;19915;-90
2022/02/04 08:22:34;;;;;;;;;;;10.60;99.90;;;;;;4928167;29;19942;-91
2022/02/04 08:30:25;;;;;;;;;;;10.50;99.90;;;;;;4926009;29;19903;-88
2022/02/04 08:51:35;;;;;;;;;;;10.70;99.90;;;;;;4925239;29;19978;-89
2022/02/04 08:54:19;;;;;;;;;;;10.80;99.90;;;;;;4923773;29;19990;-88
2022/02/04 08:56:53;;;;;;;;;;;10.80;99.90;;;;;;4925283;29;19965;-87
2022/02/04 09:00:16;;;;;;;;;;;10.80;99.90;;;;;;4924654;29;19906;-88
2022/02/04 09:02:11;;;;;;;;;;;10.80;99.90;;;;;;4915220;29;20107;-87
2022/02/04 09:04:46;;;;;;;;;;;10.90;99.90;;;;;;4925936;29;19903;-88
2022/02/04 09:07:15;;;;;;;;;;;10.90;99.90;;;;;;4925765;29;20034;-87
2022/02/04 09:09:54;;;;;;;;;;;10.90;99.90;;;;;;4924450;29;19903;-88
2022/02/04 09:20:38;;;;;;;;;;;11.10;99.90;;;;;;4923565;29;19903;-88
2022/02/04 09:23:04;;;;;;;;;;;11.10;99.90;;;;;;4925636;29;20228;-90
2022/02/04 09:25:29;;;;;;;;;;;10.90;99.90;;;;;;4925421;29;19910;-87
2022/02/04 09:27:55;;;;;;;;;;;10.60;99.90;;;;;;4922702;29;19910;-87
2022/02/04 09:30:22;;;;;;;;;;;10.30;99.90;;;;;;4923744;29;19903;-89
2022/02/04 09:32:48;;;;;;;;;;;10.20;99.90;;;;;;4924364;29;19911;-89
2022/02/04 09:35:14;;;;;;;;;;;10.20;99.90;;;;;;4924056;29;19974;-88
2022/02/04 09:37:43;;;;;;;;;;;10.10;99.90;;;;;;4924395;29;19907;-90
2022/02/04 09:40:11;;;;;;;;;;;10.10;99.90;;;;;;4921488;29;19907;-87
2022/02/04 09:42:40;;;;;;;;;;;10.20;99.90;;;;;;4923032;29;19918;-89
2022/02/04 09:45:06;;;;;;;;;;;10.20;99.90;;;;;;4922834;29;19915;-89
2022/02/04 09:47:35;;;;;;;;;;;10.20;99.90;;;;;;4922157;29;19993;-88
2022/02/04 09:50:05;;;;;;;;;;;10.20;99.90;;;;;;4924851;29;19903;-88
2022/02/04 10:09:36;;;;;;;;;;;10.50;99.90;;;;;;4921543;29;19906;-86
2022/02/04 10:17:07;;;;;;;;;;;10.40;99.90;;;;;;4925887;29;19903;-85
2022/02/04 10:19:48;;;;;;;;;;;10.30;99.90;;;;;;4927129;29;19903;-87
2022/02/04 10:22:18;;;;;;;;;;;10.30;99.90;;;;;;4927272;29;19972;-87
2022/02/04 10:24:52;;;;;;;;;;;10.30;99.90;;;;;;4928499;29;20184;-86
2022/02/04 10:27:19;;;;;;;;;;;10.30;99.90;;;;;;4928656;29;20248;-86
2022/02/04 10:30:08;;;;;;;;;;;10.40;99.90;;;;;;4926669;29;19903;-87
2022/02/04 10:32:40;;;;;;;;;;;10.40;99.90;;;;;;4917768;29;19990;-86
2022/02/04 10:35:16;;;;;;;;;;;10.60;99.90;;;;;;4909603;29;19904;-86
2022/02/04 10:37:44;;;;;;;;;;;10.70;99.90;;;;;;4909552;29;19904;-87
2022/02/04 10:40:32;;;;;;;;;;;10.90;99.90;;;;;;4907759;29;19904;-85
2022/02/04 10:46:05;;;;;;;;;;;11.10;99.90;;;;;;4890794;29;19927;-87
2022/02/04 10:48:49;;;;;;;;;;;11.20;99.90;;;;;;4907418;29;19938;-86
2022/02/04 10:54:04;;;;;;;;;;;11.50;99.90;;;;;;4909154;29;19915;-87
2022/02/04 10:59:30;;;;;;;;;;;11.50;99.90;;;;;;4907793;29;19907;-86
2022/02/04 11:02:15;;;;;;;;;;;11.40;99.90;;;;;;4909055;29;19938;-86
2022/02/04 11:04:59;;;;;;;;;;;11.30;99.90;;;;;;4916918;29;19907;-86
2022/02/04 11:08:01;;;;;;;;;;;11.20;99.90;;;;;;4885470;29;19959;-86
2022/02/04 11:43:51;;;;;;;;;;;11.90;99.90;;;;;;4883534;29;19915;-87
2022/02/04 11:57:03;;;;;;;;;;;11.80;99.90;;;;;;4897776;29;19948;-87
2022/02/04 11:59:37;;;;;;;;;;;11.90;99.90;;;;;;4893998;29;20354;-86
2022/02/04 12:02:23;;;;;;;;;;;12.00;99.90;;;;;;4894027;29;19962;-87
2022/02/04 12:04:48;;;;;;;;;;;12.10;99.90;;;;;;4894055;29;19910;-86
2022/02/04 12:07:33;;;;;;;;;;;12.00;99.90;;;;;;4897385;29;20218;-85
2022/02/04 12:10:00;;;;;;;;;;;11.90;99.90;;;;;;4893478;29;19978;-85
2022/02/04 12:13:06;;;;;;;;;;;12.10;99.90;;;;;;4891867;29;19915;-86
2022/02/04 12:15:34;;;;;;;;;;;12.10;99.90;;;;;;4896096;29;19911;-84
2022/02/04 12:18:13;;;;;;;;;;;12.10;99.90;;;;;;4888073;29;19903;-86
2022/02/04 12:20:47;;;;;;;;;;;12.20;99.90;;;;;;4891884;29;20073;-85
2022/02/04 12:23:48;;;;;;;;;;;12.30;99.90;;;;;;4890752;29;19912;-86
2022/02/04 12:26:16;;;;;;;;;;;12.30;99.90;;;;;;4886062;29;21033;-85
2022/02/04 12:28:45;;;;;;;;;;;12.40;99.90;;;;;;4885433;29;19907;-86
2022/02/04 12:31:12;;;;;;;;;;;12.20;99.90;;;;;;4891493;29;19967;-85
2022/02/04 12:33:44;;;;;;;;;;;12.10;99.90;;;;;;4891738;29;19951;-86
2022/02/04 12:36:15;;;;;;;;;;;12.20;99.90;;;;;;4887797;29;19915;-86
2022/02/04 12:38:41;;;;;;;;;;;12.20;99.90;;;;;;4876693;29;19917;-86
2022/02/04 12:41:06;;;;;;;;;;;12.10;99.90;;;;;;4893374;29;20186;-86
2022/02/04 12:43:35;;;;;;;;;;;11.90;99.90;;;;;;4891069;29;20108;-86
2022/02/04 12:46:01;;;;;;;;;;;11.80;99.90;;;;;;4908505;29;19930;-86
2022/02/04 12:48:27;;;;;;;;;;;11.70;99.90;;;;;;4901931;29;19911;-86
2022/02/04 12:51:02;;;;;;;;;;;11.70;99.90;;;;;;5126105;27;19934;-86
2022/02/04 12:53:29;;;;;;;;;;;11.70;99.90;;;;;;5094813;28;19915;-85
2022/02/04 12:56:19;;;;;;;;;;;11.80;99.90;;;;;;5110535;28;19916;-86
2022/02/04 13:02:23;;;;;;;;;;;11.90;99.90;;;;;;5106779;28;20337;-85
2022/02/04 13:07:44;;;;;;;;;;;11.90;99.90;;;;;;5120866;28;19919;-86
2022/02/04 13:10:15;;;;;;;;;;;11.90;99.90;;;;;;5105465;28;20139;-85
2022/02/04 13:13:07;;;;;;;;;;;11.90;99.90;;;;;;5097381;28;19915;-79
2022/02/04 13:15:34;;;;;;;;;;;12.00;99.90;;;;;;5110170;28;20281;-82
2022/02/04 13:18:00;;;;;;;;;;;12.20;99.90;;;;;;5119250;28;20126;-81
2022/02/04 13:20:26;;;;;;;;;;;12.30;99.90;;;;;;5118576;28;19916;-86
2022/02/04 13:22:54;;;;;;;;;;;12.40;99.90;;;;;;5118231;28;19983;-84
2022/02/04 13:25:22;;;;;;;;;;;12.40;99.90;;;;;;5110832;28;19916;-81
2022/02/04 13:28:06;;;;;;;;;;;12.40;99.90;;;;;;5106927;28;20374;-81
2022/02/04 13:30:32;;;;;;;;;;;12.30;99.90;;;;;;5098354;28;19923;-82
2022/02/04 13:32:59;;;;;;;;;;;12.30;99.90;;;;;;5104471;28;19984;-81
2022/02/04 13:35:25;;;;;;;;;;;12.30;99.90;;;;;;5117059;28;19912;-81
2022/02/04 13:37:53;;;;;;;;;;;12.30;99.90;;;;;;5108115;28;19920;-81
2022/02/04 13:40:28;;;;;;;;;;;12.40;99.90;;;;;;5087246;28;20337;-81
2022/02/04 13:43:02;;;;;;;;;;;12.50;99.90;;;;;;5103459;28;20707;-80
2022/02/04 13:45:36;;;;;;;;;;;12.50;99.90;;;;;;5106922;28;19915;-81
2022/02/04 13:48:13;;;;;;;;;;;12.50;99.90;;;;;;5107092;28;19915;-81
2022/02/04 13:50:49;;;;;;;;;;;12.60;99.90;;;;;;5111398;28;19939;-81
2022/02/04 13:53:33;;;;;;;;;;;12.70;99.90;;;;;;5118073;28;20212;-83
2022/02/04 13:56:31;;;;;;;;;;;12.90;99.90;;;;;;5118251;28;19979;-80
2022/02/04 13:58:57;;;;;;;;;;;13.00;99.90;;;;;;5116247;28;20556;-84
2022/02/04 14:01:33;;;;;;;;;;;13.00;99.90;;;;;;5107163;28;20003;-84
2022/02/04 14:04:01;;;;;;;;;;;13.00;99.90;;;;;;5099735;28;19931;-83
2022/02/04 14:06:30;;;;;;;;;;;13.10;99.90;;;;;;5097857;28;19908;-83
2022/02/04 14:08:59;;;;;;;;;;;13.10;99.90;;;;;;5098266;28;19995;-84
2022/02/04 14:11:26;;;;;;;;;;;13.20;99.90;;;;;;5096145;28;19938;-83
2022/02/04 14:13:52;;;;;;;;;;;13.20;99.90;;;;;;5096334;28;19916;-83
2022/02/04 14:16:19;;;;;;;;;;;13.40;99.90;;;;;;5094439;28;20156;-83
2022/02/04 14:18:45;;;;;;;;;;;13.30;99.90;;;;;;5093669;28;19908;-83
2022/02/04 14:21:10;;;;;;;;;;;13.20;99.90;;;;;;5095806;28;20104;-83
2022/02/04 14:23:36;;;;;;;;;;;13.30;99.90;;;;;;5092435;28;19951;-84
2022/02/04 14:26:18;;;;;;;;;;;13.30;99.90;;;;;;5094784;28;19975;-83
2022/02/04 14:36:17;;;;;;;;;;;13.60;99.90;;;;;;5092424;28;19943;-83
2022/02/04 14:50:03;;;;;;;;;;;13.40;99.90;;;;;;5087633;28;19981;-83
2022/02/04 15:02:45;;;;;;;;;;;13.00;99.90;;;;;;5093970;28;19912;-81
2022/02/04 15:05:15;;;;;;;;;;;13.20;99.90;;;;;;5094235;28;19979;-81
2022/02/04 15:07:43;;;;;;;;;;;13.10;99.90;;;;;;5098809;28;20383;-81
2022/02/04 15:10:14;;;;;;;;;;;13.10;99.90;;;;;;5099166;28;19983;-81
2022/02/04 15:12:40;;;;;;;;;;;13.40;99.90;;;;;;5080849;28;19911;-82
2022/02/04 15:15:05;;;;;;;;;;;13.50;99.90;;;;;;5095528;28;19912;-81
2022/02/04 15:17:31;;;;;;;;;;;13.40;99.90;;;;;;5097414;28;20105;-87
2022/02/04 15:19:57;;;;;;;;;;;13.40;99.90;;;;;;5079008;28;19950;-86
2022/02/04 15:22:26;;;;;;;;;;;13.20;99.90;;;;;;5094161;28;19908;-87
2022/02/04 15:24:56;;;;;;;;;;;13.00;99.90;;;;;;5091921;28;19915;-86
2022/02/04 15:27:21;;;;;;;;;;;12.90;99.90;;;;;;5073678;28;19939;-86
2022/02/04 15:29:49;;;;;;;;;;;12.80;99.90;;;;;;5091803;28;20490;-87
2022/02/04 15:32:15;;;;;;;;;;;12.70;99.90;;;;;;5092191;28;20364;-87
2022/02/04 15:34:41;;;;;;;;;;;12.60;99.90;;;;;;5092292;28;19915;-86
2022/02/04 15:37:07;;;;;;;;;;;12.60;99.90;;;;;;5091678;28;19908;-86
2022/02/04 15:39:34;;;;;;;;;;;12.70;99.90;;;;;;5091556;28;20279;-86
2022/02/04 15:42:10;;;;;;;;;;;12.60;99.90;;;;;;5073373;28;19919;-86
2022/02/04 15:44:39;;;;;;;;;;;12.50;99.90;;;;;;5092159;28;19908;-86
2022/02/04 15:47:32;;;;;;;;;;;12.40;99.90;;;;;;5073471;28;19914;-86
2022/02/04 15:50:21;;;;;;;;;;;12.40;99.90;;;;;;5087129;28;19920;-86
2022/02/04 16:05:43;;;;;;;;;;;12.30;99.90;;;;;;5071516;28;19909;-86
2022/02/04 16:08:11;;;;;;;;;;;12.20;99.90;;;;;;5071127;28;20015;-88
2022/02/04 16:10:50;;;;;;;;;;;12.10;99.90;;;;;;5071057;28;19940;-86
2022/02/04 16:16:25;;;;;;;;;;;12.00;99.90;;;;;;5028412;28;20393;-86
2022/02/04 16:21:29;;;;;;;;;;;11.90;99.90;;;;;;5050948;28;20068;-88
2022/02/04 16:24:23;;;;;;;;;;;11.90;99.90;;;;;;5070631;28;19939;-86
2022/02/04 16:29:17;;;;;;;;;;;11.80;99.90;;;;;;5071138;28;19923;-86
2022/02/04 16:31:43;;;;;;;;;;;11.70;99.90;;;;;;5070781;28;19909;-87
2022/02/04 16:34:09;;;;;;;;;;;11.70;99.90;;;;;;5070768;28;19923;-86
2022/02/04 16:36:38;;;;;;;;;;;11.70;99.90;;;;;;5070726;28;19928;-87
2022/02/04 16:39:04;;;;;;;;;;;11.60;99.90;;;;;;5070498;28;19916;-86
2022/02/04 16:41:33;;;;;;;;;;;11.60;99.90;;;;;;5071098;28;19909;-86
2022/02/04 16:43:59;;;;;;;;;;;11.50;99.90;;;;;;5071017;28;20322;-86
2022/02/04 16:46:25;;;;;;;;;;;11.40;99.90;;;;;;5070609;28;19908;-87
2022/02/04 16:48:51;;;;;;;;;;;11.50;99.90;;;;;;5072691;28;19942;-86
2022/02/04 16:51:17;;;;;;;;;;;11.40;99.90;;;;;;5090420;28;19948;-86
2022/02/04 16:53:43;;;;;;;;;;;11.40;99.90;;;;;;5090837;28;19991;-86
2022/02/04 16:56:09;;;;;;;;;;;11.40;99.90;;;;;;5090415;28;19908;-86
2022/02/04 16:58:34;;;;;;;;;;;11.40;99.90;;;;;;5090419;28;19908;-85
2022/02/04 17:01:01;;;;;;;;;;;11.40;99.90;;;;;;5090671;28;20942;-87
2022/02/04 17:03:26;;;;;;;;;;;11.30;99.90;;;;;;5090514;28;20387;-87
2022/02/04 17:05:56;;;;;;;;;;;11.30;99.90;;;;;;5078239;28;19912;-87
2022/02/04 17:09:20;;;;;;;;;;;11.30;99.90;;;;;;5095928;28;19920;-89
2022/02/04 17:11:12;;;;;;;;;;;11.30;99.90;;;;;;5082917;28;19917;-81
2022/02/04 17:13:38;;;;;;;;;;;11.20;99.90;;;;;;5090229;28;19968;-81
2022/02/04 17:16:05;;;;;;;;;;;11.20;99.90;;;;;;5072344;28;20284;-81
2022/02/04 17:18:30;;;;;;;;;;;11.10;99.90;;;;;;5090371;28;20361;-81
2022/02/04 17:20:56;;;;;;;;;;;11.20;99.90;;;;;;5090392;28;19999;-81
2022/02/04 17:23:41;;;;;;;;;;;11.20;99.90;;;;;;5090331;28;19931;-81
2022/02/04 17:26:07;;;;;;;;;;;11.10;99.90;;;;;;5091908;28;19963;-91
2022/02/04 17:28:33;;;;;;;;;;;11.10;99.90;;;;;;5079203;28;19966;-94
2022/02/04 17:31:00;;;;;;;;;;;11.20;99.90;;;;;;5102363;28;19922;-93
2022/02/04 17:33:26;;;;;;;;;;;11.10;99.90;;;;;;5083518;28;19909;-91
2022/02/04 17:35:56;;;;;;;;;;;11.10;99.90;;;;;;5103596;28;19908;-92
2022/02/04 17:38:25;;;;;;;;;;;11.10;99.90;;;;;;5082910;28;19915;-89
2022/02/04 17:40:53;;;;;;;;;;;11.10;99.90;;;;;;5099928;28;19915;-92
2022/02/04 17:43:19;;;;;;;;;;;11.10;99.90;;;;;;5085532;28;19905;-93
2022/02/04 17:45:44;;;;;;;;;;;11.00;99.90;;;;;;5074608;28;19920;-92
2022/02/04 17:48:22;;;;;;;;;;;11.00;99.90;;;;;;5064318;28;19915;-91
2022/02/04 17:50:55;;;;;;;;;;;11.00;99.90;;;;;;5091081;28;20716;-92
2022/02/04 17:53:25;;;;;;;;;;;10.80;99.90;;;;;;5082560;28;19908;-91
2022/02/04 17:56:02;;;;;;;;;;;10.80;99.90;;;;;;5079314;28;19912;-90
2022/02/04 17:59:04;;;;;;;;;;;10.80;99.90;;;;;;5106860;28;19916;-91
2022/02/04 18:08:55;;;;;;;;;;;10.40;99.90;;;;;;5102705;28;19915;-91
2022/02/04 18:11:21;;;;;;;;;;;10.30;99.90;;;;;;5106540;28;19912;-90
2022/02/04 18:13:46;;;;;;;;;;;10.30;99.90;;;;;;5097955;28;19919;-89
2022/02/04 18:16:12;;;;;;;;;;;10.30;99.90;;;;;;5083614;28;19924;-89
2022/02/04 18:18:37;;;;;;;;;;;10.30;99.90;;;;;;5098435;28;19912;-91
2022/02/04 18:21:03;;;;;;;;;;;10.30;99.90;;;;;;5099230;28;19908;-91
2022/02/04 18:23:30;;;;;;;;;;;10.20;99.90;;;;;;5101211;28;19908;-90
2022/02/04 18:25:56;;;;;;;;;;;10.20;99.90;;;;;;5087811;28;19931;-91
2022/02/04 18:28:22;;;;;;;;;;;10.10;99.90;;;;;;5087438;28;19930;-91
2022/02/04 18:30:48;;;;;;;;;;;10.10;99.90;;;;;;5101207;28;19916;-91
2022/02/04 18:33:14;;;;;;;;;;;10.10;99.90;;;;;;5080196;28;19909;-89
2022/02/04 18:35:42;;;;;;;;;;;9.90;99.90;;;;;;5104154;28;19980;-90
2022/02/04 18:38:21;;;;;;;;;;;9.80;99.90;;;;;;5093364;28;19908;-89
2022/02/04 18:42:06;;;;;;;;;;;9.70;99.90;;;;;;5093938;28;19940;-88
2022/02/04 18:43:58;;;;;;;;;;;9.70;99.90;;;;;;5072677;28;19930;-88
2022/02/04 18:48:55;;;;;;;;;;;9.70;99.90;;;;;;5094239;28;20380;-89
2022/02/04 18:54:30;;;;;;;;;;;9.60;99.90;;;;;;5079462;28;19908;-91
2022/02/04 18:59:18;;;;;;;;;;;9.40;99.90;;;;;;5084466;28;19908;-90
2022/02/04 19:01:46;;;;;;;;;;;9.40;99.90;;;;;;5078768;28;20016;-90
2022/02/04 19:04:16;;;;;;;;;;;9.30;99.90;;;;;;5086069;28;19959;-90
2022/02/04 19:06:47;;;;;;;;;;;9.30;99.90;;;;;;5081925;28;19915;-91
2022/02/04 19:09:12;;;;;;;;;;;9.20;99.90;;;;;;5075859;28;20425;-90
2022/02/04 19:11:43;;;;;;;;;;;9.10;99.90;;;;;;5055797;28;19991;-91
2022/02/04 19:14:14;;;;;;;;;;;9.10;99.90;;;;;;5060137;28;20015;-91
2022/02/04 19:19:25;;;;;;;;;;;9.10;99.90;;;;;;5073090;28;19905;-92
2022/02/04 19:24:24;;;;;;;;;;;9.10;99.90;;;;;;5078632;28;20312;-91
2022/02/04 19:26:50;;;;;;;;;;;9.10;99.90;;;;;;5077409;28;19963;-91
2022/02/04 19:29:15;;;;;;;;;;;9.20;99.90;;;;;;5092221;28;20219;-89
2022/02/04 19:32:03;;;;;;;;;;;9.20;99.90;;;;;;5071941;28;20004;-91
2022/02/04 19:34:28;;;;;;;;;;;9.20;99.90;;;;;;5080148;28;19909;-90
2022/02/04 19:36:55;;;;;;;;;;;9.20;99.90;;;;;;5065553;28;20089;-91
2022/02/04 19:39:21;;;;;;;;;;;9.20;99.90;;;;;;5058343;28;19908;-90
2022/02/04 19:41:58;;;;;;;;;;;9.20;99.90;;;;;;5073382;28;19909;-91
2022/02/04 19:44:24;;;;;;;;;;;9.30;99.90;;;;;;5071900;28;19909;-91
2022/02/04 19:46:54;;;;;;;;;;;9.30;99.90;;;;;;5079969;28;19908;-91
2022/02/04 19:49:23;;;;;;;;;;;9.30;99.90;;;;;;5053981;28;20336;-91
2022/02/04 19:51:58;;;;;;;;;;;9.30;99.90;;;;;;5082436;28;20036;-90
2022/02/04 20:23:56;;;;;;;;;;;8.70;99.90;;;;;;5093737;28;19958;-91
2022/02/04 20:26:21;;;;;;;;;;;8.70;99.90;;;;;;5093840;28;19908;-90
2022/02/04 20:28:47;;;;;;;;;;;8.60;99.90;;;;;;5091616;28;19914;-89
2022/02/04 20:31:13;;;;;;;;;;;8.60;99.90;;;;;;5074418;28;19912;-90
2022/02/04 20:33:38;;;;;;;;;;;8.60;99.90;;;;;;5092080;28;19914;-91
2022/02/04 20:36:04;;;;;;;;;;;8.60;99.90;;;;;;5094178;28;19976;-90
2022/02/04 20:38:34;;;;;;;;;;;8.60;99.90;;;;;;5096965;28;20307;-90
2022/02/04 20:41:09;;;;;;;;;;;8.50;99.90;;;;;;5093255;28;19912;-90
2022/02/04 20:43:35;;;;;;;;;;;8.50;99.90;;;;;;5074440;28;19908;-90
2022/02/04 20:46:02;;;;;;;;;;;8.50;99.90;;;;;;5078307;28;19904;-90
2022/02/04 20:48:33;;;;;;;;;;;8.50;99.90;;;;;;5096151;28;19908;-91
2022/02/04 20:50:59;;;;;;;;;;;8.50;99.90;;;;;;5074917;28;20258;-90
2022/02/04 20:53:24;;;;;;;;;;;8.60;99.90;;;;;;5093968;28;19912;-90
2022/02/04 20:55:50;;;;;;;;;;;8.60;99.90;;;;;;5092036;28;19908;-91
2022/02/04 20:58:16;;;;;;;;;;;8.50;99.90;;;;;;5058331;28;20292;-90
2022/02/04 21:00:42;;;;;;;;;;;8.50;99.90;;;;;;5095599;28;19911;-91
2022/02/04 21:03:10;;;;;;;;;;;8.40;99.90;;;;;;5094495;28;20391;-90
2022/02/04 21:05:53;;;;;;;;;;;8.30;99.90;;;;;;5095062;28;20322;-91
2022/02/04 21:16:09;;;;;;;;;;;8.20;99.90;;;;;;5097318;28;20003;-90
2022/02/04 21:18:35;;;;;;;;;;;8.20;99.90;;;;;;5095889;28;19951;-90
2022/02/04 21:21:00;;;;;;;;;;;8.20;99.90;;;;;;5095855;28;19912;-89
2022/02/04 21:23:26;;;;;;;;;;;8.20;99.90;;;;;;5097467;28;20384;-90
2022/02/04 21:25:55;;;;;;;;;;;8.10;99.90;;;;;;5078064;28;19976;-92
2022/02/04 21:28:24;;;;;;;;;;;8.20;99.90;;;;;;5098163;28;20178;-90
2022/02/04 21:30:49;;;;;;;;;;;8.20;99.90;;;;;;5095370;28;19920;-90
2022/02/04 21:38:41;;;;;;;;;;;8.00;99.90;;;;;;5097031;28;20219;-90
2022/02/04 21:41:06;;;;;;;;;;;8.00;99.90;;;;;;5097238;28;19942;-90